Terminal Aerodrome Forecast
Issued by NWS La Crosse, WI

Home | Current Version | Previous Version | Text Only | Print | Product List | Glossary On
Versions: 1 2 3 4 5 6 7 8 9 10 11 12 13 14 15 16 17 18 19 20 21 22 23 24 25 26 27 28 29 30 31 32 33
000
FTUS43 KARX 241324 AAA
TAFLSE
TAF AMD
KLSE 241324Z 2413/2512 19010KT P6SM SCT008 BKN025
      TEMPO 2413/2415 BKN015
     FM241600 20008KT P6SM SCT015 BKN030
     FM241900 23008KT P6SM BKN035
     FM242100 27008KT P6SM SCT040
     FM250000 27004KT P6SM SCT220=

USA.gov is the U.S. government's official web portal to all federal, state and local government web resources and services.